Time;durP1;ratioP1;P1;durP2;ratioP2;P2;SDS_P1;SDS_P2;PMS_P1;PMS_P2;Temp;Humidity;BMP_temperature;BMP_pressure;BME280_temperature;BME280_humidity;BME280_pressure;Samples;Min_cycle;Max_cycle;Signal;HPM_P1;HPM_P2
2021/07/31 00:01:39;;;;;;;7.65;5.93;;;;;;;18.69;72.28;98784.31;5112961;28;20050;-83
2021/07/31 00:04:05;;;;;;;7.30;6.05;;;;;;;18.54;72.04;98762.34;5096068;28;20044;-80
2021/07/31 00:06:31;;;;;;;9.02;6.50;;;;;;;18.36;72.22;98743.19;5113576;28;20448;-81
2021/07/31 00:08:57;;;;;;;9.52;6.40;;;;;;;18.41;72.34;98753.47;5111638;28;20035;-85
2021/07/31 00:11:23;;;;;;;10.40;6.10;;;;;;;18.67;72.26;98804.63;5125128;28;20045;-81
2021/07/31 00:13:49;;;;;;;7.45;5.95;;;;;;;18.26;72.39;98745.50;5120909;28;20035;-84
2021/07/31 00:16:15;;;;;;;9.65;5.68;;;;;;;18.60;72.18;98801.50;5111446;28;20044;-85
2021/07/31 00:18:41;;;;;;;9.30;6.25;;;;;;;18.59;72.32;98806.84;5111644;28;20042;-84
2021/07/31 00:21:08;;;;;;;8.80;6.50;;;;;;;18.33;72.10;98775.81;5114641;28;20095;-82
2021/07/31 00:23:34;;;;;;;9.27;6.43;;;;;;;18.19;72.38;98763.44;5114591;28;20047;-86
2021/07/31 00:26:00;;;;;;;6.80;6.10;;;;;;;18.49;72.37;98807.38;5132753;28;20490;-81
2021/07/31 00:28:26;;;;;;;8.20;6.45;;;;;;;18.38;72.37;98788.72;5133113;27;20077;-81
2021/07/31 00:30:52;;;;;;;7.53;6.30;;;;;;;18.45;72.51;98797.97;5134998;27;20081;-82
2021/07/31 00:33:18;;;;;;;7.93;6.20;;;;;;;18.21;72.48;98768.59;5135349;27;20046;-81
2021/07/31 00:35:44;;;;;;;8.13;6.22;;;;;;;18.27;72.61;98777.94;5135823;27;20039;-81
2021/07/31 00:38:10;;;;;;;10.32;6.10;;;;;;;18.31;72.51;98782.94;5138044;27;20424;-82
2021/07/31 00:40:37;;;;;;;7.40;5.97;;;;;;;18.36;72.61;98801.97;5119420;27;20032;-82
2021/07/31 00:43:08;;;;;;;8.43;5.70;;;;;;;18.37;72.72;98802.81;5120548;27;20122;-82
2021/07/31 00:45:35;;;;;;;8.90;5.80;;;;;;;18.37;72.70;98805.44;5138698;27;20035;-85
2021/07/31 00:48:01;;;;;;;8.52;5.85;;;;;;;18.36;72.72;98809.00;5137435;27;20400;-85
2021/07/31 00:50:31;;;;;;;16.73;6.82;;;;;;;18.31;72.85;98801.38;5144262;27;20039;-80
2021/07/31 00:52:59;;;;;;;10.80;6.32;;;;;;;18.35;72.75;98813.44;5125922;27;20124;-81
2021/07/31 00:55:27;;;;;;;8.00;5.85;;;;;;;18.30;72.75;98809.38;5124712;27;20550;-81
2021/07/31 00:57:54;;;;;;;10.70;6.30;;;;;;;18.31;72.95;98808.44;5141731;27;20120;-80
2021/07/31 01:00:28;;;;;;;11.02;6.63;;;;;;;18.18;72.88;98795.13;5140195;27;20042;-80
2021/07/31 01:02:54;;;;;;;9.73;6.80;;;;;;;18.06;72.88;98779.06;5120389;27;20496;-83
2021/07/31 01:05:21;;;;;;;12.30;7.30;;;;;;;17.94;72.84;98771.84;5135299;27;20045;-82
2021/07/31 01:07:49;;;;;;;11.40;7.20;;;;;;;17.91;72.94;98779.91;5101760;27;20039;-82
2021/07/31 01:10:16;;;;;;;10.98;7.50;;;;;;;17.94;73.18;98795.53;5136962;27;20443;-81
2021/07/31 01:12:44;;;;;;;8.88;6.72;;;;;;;17.92;73.52;98813.19;5136443;27;20087;-86
2021/07/31 01:15:11;;;;;;;11.90;7.40;;;;;;;17.75;73.49;98798.31;5135403;27;20564;-81
2021/07/31 01:17:37;;;;;;;9.77;7.25;;;;;;;17.60;73.57;98786.81;5147177;27;20042;-79
2021/07/31 01:20:03;;;;;;;12.82;7.32;;;;;;;17.57;73.71;98794.88;5147694;27;20051;-84
2021/07/31 01:22:32;;;;;;;15.48;6.75;;;;;;;17.54;73.88;98797.69;5100636;27;20074;-85
2021/07/31 01:25:02;;;;;;;12.60;6.70;;;;;;;17.39;73.72;98794.94;5136825;27;20039;-83
2021/07/31 01:27:28;;;;;;;11.18;6.40;;;;;;;17.37;74.32;98809.09;5118960;27;20578;-80
2021/07/31 01:29:54;;;;;;;12.82;6.50;;;;;;;17.38;74.21;98811.63;5134911;27;20133;-81
2021/07/31 01:32:20;;;;;;;10.70;6.55;;;;;;;17.09;74.43;98766.72;5155009;27;20041;-83
2021/07/31 01:34:48;;;;;;;14.32;7.03;;;;;;;17.28;74.77;98810.44;5138662;27;20039;-80
2021/07/31 01:37:14;;;;;;;19.50;6.68;;;;;;;17.25;74.72;98813.22;5140143;27;20111;-81
2021/07/31 01:39:42;;;;;;;10.55;6.35;;;;;;;17.20;74.96;98815.25;5120567;27;20060;-84
2021/07/31 01:42:08;;;;;;;9.32;6.18;;;;;;;17.24;74.94;98827.28;5100975;27;20039;-83
2021/07/31 01:44:37;;;;;;;10.10;6.53;;;;;;;17.16;75.12;98823.28;5118362;27;20115;-81
2021/07/31 01:47:03;;;;;;;7.43;6.07;;;;;;;17.13;75.14;98823.44;5134642;27;20040;-84
2021/07/31 01:49:31;;;;;;;9.27;6.45;;;;;;;17.06;75.51;98821.19;5134639;27;20039;-87
2021/07/31 01:52:08;;;;;;;8.48;6.30;;;;;;;17.03;75.41;98824.84;5136076;27;20043;-81
2021/07/31 01:54:36;;;;;;;9.05;6.72;;;;;;;16.94;75.88;98812.13;5138826;27;20094;-78
2021/07/31 01:57:02;;;;;;;8.82;6.15;;;;;;;16.92;75.60;98819.25;5146150;27;20030;-79
2021/07/31 01:59:48;;;;;;;10.20;7.18;;;;;;;16.68;75.93;98778.38;5145563;27;20040;-81
2021/07/31 02:02:14;;;;;;;7.85;6.68;;;;;;;16.91;76.22;98828.91;5145173;27;20069;-81
2021/07/31 02:04:48;;;;;;;9.32;6.43;;;;;;;16.85;76.18;98830.09;5109140;27;20103;-81
2021/07/31 02:07:23;;;;;;;8.43;6.55;;;;;;;16.79;76.33;98822.50;5137353;27;20046;-84
2021/07/31 02:09:49;;;;;;;15.00;6.75;;;;;;;16.87;76.54;98835.25;5135061;27;20139;-84
2021/07/31 02:12:16;;;;;;;10.80;6.57;;;;;;;16.75;76.62;98815.69;5116219;27;20055;-82
2021/07/31 02:14:42;;;;;;;9.43;6.88;;;;;;;16.85;76.75;98837.09;5134758;27;20397;-82
2021/07/31 02:17:10;;;;;;;10.63;6.80;;;;;;;16.73;76.65;98804.41;5122443;27;20051;-80
2021/07/31 02:19:37;;;;;;;13.18;7.45;;;;;;;16.79;76.98;98816.38;5143449;27;20039;-81
2021/07/31 02:22:10;;;;;;;10.75;6.85;;;;;;;16.79;76.98;98814.63;5123030;27;20035;-79
2021/07/31 02:24:55;;;;;;;8.07;6.28;;;;;;;16.94;77.17;98838.41;5151330;27;20062;-82
2021/07/31 02:27:43;;;;;;;10.50;6.80;;;;;;;16.83;77.30;98821.41;5120376;27;20068;-82
2021/07/31 02:30:11;;;;;;;7.18;6.15;;;;;;;16.95;77.10;98838.38;5133931;27;20059;-83
2021/07/31 02:32:39;;;;;;;11.75;6.55;;;;;;;16.97;76.99;98841.78;5117906;27;20046;-81
2021/07/31 02:35:07;;;;;;;11.13;6.65;;;;;;;16.95;77.27;98840.09;5116192;27;20042;-81
2021/07/31 02:37:44;;;;;;;9.98;6.60;;;;;;;17.03;77.28;98843.25;5113534;28;20039;-81
2021/07/31 02:40:10;;;;;;;10.65;7.13;;;;;;;16.79;77.36;98804.09;5094916;28;20035;-81
2021/07/31 02:42:36;;;;;;;10.77;6.57;;;;;;;17.04;77.39;98825.69;5111923;28;20035;-87
2021/07/31 02:45:04;;;;;;;9.60;6.50;;;;;;;17.10;77.25;98839.34;5112488;28;20501;-79
2021/07/31 02:47:32;;;;;;;10.45;6.55;;;;;;;17.15;77.56;98847.03;5112892;28;20496;-83
2021/07/31 02:49:59;;;;;;;11.00;7.43;;;;;;;17.09;77.58;98826.31;5112015;28;20508;-80
2021/07/31 02:52:26;;;;;;;8.98;7.20;;;;;;;17.23;77.33;98836.09;5113406;28;20055;-79
2021/07/31 02:54:56;;;;;;;13.98;7.22;;;;;;;17.26;77.25;98842.03;5113713;28;20108;-82
2021/07/31 02:57:22;;;;;;;9.27;6.97;;;;;;;17.38;77.21;98851.06;5113520;28;20050;-80
2021/07/31 02:59:49;;;;;;;10.10;7.20;;;;;;;17.43;77.06;98840.34;5097395;28;20070;-84
2021/07/31 03:02:18;;;;;;;8.45;6.70;;;;;;;17.49;77.18;98841.78;5115098;28;20044;-81
2021/07/31 03:04:47;;;;;;;10.25;6.20;;;;;;;17.51;76.93;98838.13;5114063;28;20035;-83
2021/07/31 03:07:19;;;;;;;10.90;6.65;;;;;;;17.61;76.96;98842.00;5114601;28;20062;-83
2021/07/31 03:09:47;;;;;;;9.25;6.90;;;;;;;17.68;77.02;98839.00;5111961;28;20507;-82
2021/07/31 03:12:15;;;;;;;7.68;6.22;;;;;;;17.64;76.75;98830.44;5112190;28;20453;-82
2021/07/31 03:14:42;;;;;;;8.90;6.28;;;;;;;17.79;76.78;98844.56;5095178;28;20036;-80
2021/07/31 03:17:09;;;;;;;8.95;6.20;;;;;;;17.84;76.62;98841.69;5111968;28;20035;-83
2021/07/31 03:19:35;;;;;;;10.48;6.90;;;;;;;17.92;76.62;98842.94;5113573;28;20075;-83
2021/07/31 03:22:04;;;;;;;10.55;6.80;;;;;;;17.86;76.30;98829.28;5114032;28;20412;-84
2021/07/31 03:24:37;;;;;;;10.98;6.68;;;;;;;17.95;76.19;98836.69;5134244;27;20114;-81
2021/07/31 03:27:06;;;;;;;11.02;6.43;;;;;;;18.10;76.02;98849.97;5134175;27;20396;-82
2021/07/31 03:29:50;;;;;;;8.65;6.43;;;;;;;18.09;75.82;98830.72;5158501;27;20141;-78
2021/07/31 03:32:17;;;;;;;9.13;5.85;;;;;;;18.18;75.51;98829.34;5154292;27;20043;-84
2021/07/31 03:34:43;;;;;;;10.80;5.97;;;;;;;18.30;75.44;98839.19;5120557;27;20038;-81
2021/07/31 03:37:09;;;;;;;8.65;6.18;;;;;;;18.44;75.29;98861.25;5163482;27;20490;-86
2021/07/31 03:39:36;;;;;;;8.35;5.88;;;;;;;18.46;74.99;98846.19;5178209;27;20050;-81
2021/07/31 03:42:02;;;;;;;10.50;5.50;;;;;;;18.63;74.96;98856.66;5141370;27;20046;-82
2021/07/31 03:44:28;;;;;;;9.18;6.05;;;;;;;18.70;74.75;98854.50;5119871;27;20069;-82
2021/07/31 03:46:57;;;;;;;10.73;5.90;;;;;;;18.81;74.41;98867.91;5119581;27;20042;-85
2021/07/31 03:49:24;;;;;;;8.63;5.88;;;;;;;18.93;74.11;98866.34;5135599;27;20049;-82
2021/07/31 03:51:54;;;;;;;11.90;5.28;;;;;;;18.98;73.68;98850.28;5103131;27;20137;-82
2021/07/31 03:54:20;;;;;;;7.80;5.22;;;;;;;19.08;73.74;98851.44;5136120;27;20120;-83
2021/07/31 03:56:46;;;;;;;8.25;5.25;;;;;;;19.17;73.00;98844.78;5135535;27;20042;-84
2021/07/31 03:59:35;;;;;;;11.85;5.45;;;;;;;19.22;73.14;98842.72;5138235;27;20045;-82
2021/07/31 04:02:02;;;;;;;8.57;5.20;;;;;;;19.45;72.65;98851.03;5135178;27;20038;-80
2021/07/31 04:04:30;;;;;;;10.07;5.35;;;;;;;19.23;72.27;98790.81;5154259;27;20609;-84
2021/07/31 04:06:58;;;;;;;7.63;5.57;;;;;;;19.74;71.46;98853.69;5119136;27;20066;-83
2021/07/31 04:09:45;;;;;;;6.45;4.95;;;;;;;19.82;71.36;98847.91;5107142;27;20058;-84
2021/07/31 04:12:30;;;;;;;8.40;5.57;;;;;;;20.07;70.38;98865.72;5121049;27;20514;-79
2021/07/31 04:15:15;;;;;;;10.20;5.15;;;;;;;20.25;70.03;98869.00;5154098;27;20091;-81
2021/07/31 04:17:43;;;;;;;9.13;5.30;;;;;;;20.32;69.82;98851.78;5136287;27;20468;-85
2021/07/31 04:20:10;;;;;;;6.47;4.75;;;;;;;20.58;69.41;98864.28;5135613;27;20039;-83
2021/07/31 04:22:36;;;;;;;5.85;4.93;;;;;;;20.61;68.57;98856.16;5136211;27;20042;-80
2021/07/31 04:25:02;;;;;;;10.25;5.07;;;;;;;20.79;68.23;98862.03;5119209;27;20141;-84
2021/07/31 04:27:30;;;;;;;8.45;4.68;;;;;;;20.94;67.63;98868.09;5136501;27;20419;-85
2021/07/31 04:29:56;;;;;;;10.27;5.50;;;;;;;21.09;66.83;98868.00;5102136;27;20055;-81
2021/07/31 04:32:21;;;;;;;7.22;4.78;;;;;;;21.03;66.82;98824.34;5120063;27;20419;-79
2021/07/31 04:34:47;;;;;;;7.38;4.80;;;;;;;21.31;66.26;98862.97;5155865;27;20042;-85
2021/07/31 04:37:13;;;;;;;6.13;5.13;;;;;;;21.46;65.65;98869.00;5149960;27;20035;-79
2021/07/31 04:39:39;;;;;;;10.50;5.28;;;;;;;21.45;65.11;98840.84;5128559;27;20046;-84
2021/07/31 04:42:06;;;;;;;7.30;4.60;;;;;;;21.73;64.43;98867.25;5101932;27;20473;-80
2021/07/31 04:45:01;;;;;;;7.53;4.75;;;;;;;21.13;63.51;98750.50;5119228;27;20042;-85
2021/07/31 04:47:45;;;;;;;10.23;5.22;;;;;;;21.81;63.43;98841.06;5154027;27;20050;-82
2021/07/31 04:50:17;;;;;;;9.75;4.82;;;;;;;21.70;63.10;98793.34;5104615;27;20042;-82
2021/07/31 04:52:44;;;;;;;6.35;4.95;;;;;;;22.32;62.72;98863.06;5120883;27;20038;-81
2021/07/31 04:55:10;;;;;;;7.70;5.00;;;;;;;22.47;62.03;98867.28;5137571;27;20128;-83
2021/07/31 04:57:36;;;;;;;7.38;5.10;;;;;;;22.68;61.28;98856.06;5158550;27;20038;-83
2021/07/31 05:00:03;;;;;;;6.80;4.65;;;;;;;22.79;61.22;98856.13;5158684;27;20034;-85
2021/07/31 05:02:32;;;;;;;8.70;5.03;;;;;;;23.00;60.32;98858.09;5138520;27;20038;-83
2021/07/31 05:04:59;;;;;;;9.10;4.82;;;;;;;23.16;59.76;98860.44;5123505;27;20062;-81
2021/07/31 05:07:25;;;;;;;8.73;4.90;;;;;;;23.29;59.28;98852.41;5126331;27;20035;-80
2021/07/31 05:09:51;;;;;;;5.45;4.82;;;;;;;23.31;58.78;98839.84;5160821;27;20038;-81
2021/07/31 05:12:17;;;;;;;7.43;5.05;;;;;;;23.58;58.17;98862.56;5141379;27;20022;-82
2021/07/31 05:14:42;;;;;;;9.30;4.88;;;;;;;23.67;57.85;98861.00;5141233;27;20071;-84
2021/07/31 05:17:08;;;;;;;7.65;4.60;;;;;;;23.68;57.25;98842.31;5141170;27;20065;-82
2021/07/31 05:19:34;;;;;;;11.30;4.72;;;;;;;23.82;57.06;98846.53;5157778;27;20400;-82
2021/07/31 05:22:00;;;;;;;6.63;4.70;;;;;;;23.86;56.47;98834.69;5121815;27;20579;-83
2021/07/31 05:24:26;;;;;;;7.63;4.95;;;;;;;24.21;56.41;98840.81;5140464;27;20117;-83
2021/07/31 05:26:53;;;;;;;7.10;4.82;;;;;;;24.50;55.51;98859.72;5158077;27;20042;-84
2021/07/31 05:29:19;;;;;;;7.00;4.45;;;;;;;24.65;55.19;98823.03;5140510;27;20051;-81
2021/07/31 05:31:44;;;;;;;6.00;4.63;;;;;;;24.77;53.86;98818.53;5138583;27;20058;-87
2021/07/31 05:34:10;;;;;;;7.65;4.47;;;;;;;25.02;52.91;98855.56;5138576;27;20035;-86
2021/07/31 05:36:38;;;;;;;6.80;4.35;;;;;;;25.28;52.80;98858.66;5139208;27;20121;-83
2021/07/31 05:39:04;;;;;;;5.60;4.35;;;;;;;25.44;52.39;98855.56;5140162;27;20043;-81
2021/07/31 05:41:30;;;;;;;6.97;4.53;;;;;;;25.79;51.80;98858.81;5138879;27;20042;-82
2021/07/31 05:43:56;;;;;;;8.45;4.28;;;;;;;26.70;51.90;98850.72;5137743;27;20078;-80
2021/07/31 05:46:21;;;;;;;8.30;4.88;;;;;;;28.18;49.19;98818.28;5180062;27;20038;-80
2021/07/31 05:48:49;;;;;;;6.82;4.85;;;;;;;29.57;47.05;98817.72;5144951;27;20046;-83
2021/07/31 05:51:16;;;;;;;7.93;4.57;;;;;;;31.07;44.39;98833.16;5104757;27;20039;-84
2021/07/31 05:53:42;;;;;;;5.40;4.20;;;;;;;32.45;41.65;98833.84;5139867;27;20042;-83
2021/07/31 05:56:09;;;;;;;6.00;4.20;;;;;;;33.74;38.44;98834.03;5159268;27;20059;-87
2021/07/31 05:58:35;;;;;;;6.85;4.07;;;;;;;34.57;35.86;98820.28;5140571;27;20550;-85
2021/07/31 06:01:05;;;;;;;5.75;4.30;;;;;;;35.19;34.25;98833.28;5140056;27;20038;-84
2021/07/31 06:03:35;;;;;;;4.73;3.97;;;;;;;35.80;33.10;98831.75;5142914;27;20178;-81
2021/07/31 06:06:01;;;;;;;7.40;4.03;;;;;;;36.37;31.35;98820.72;5146628;27;20280;-79
2021/07/31 06:08:27;;;;;;;7.28;4.20;;;;;;;36.92;30.68;98807.88;5166027;27;20038;-79
2021/07/31 06:11:04;;;;;;;5.90;4.10;;;;;;;37.36;28.96;98829.09;5160557;27;20407;-82
2021/07/31 06:13:31;;;;;;;7.82;4.32;;;;;;;37.71;27.88;98784.56;5123883;27;20049;-86
2021/07/31 06:15:57;;;;;;;5.38;4.20;;;;;;;38.06;27.13;98806.75;5124285;27;20030;-86
2021/07/31 06:18:25;;;;;;;4.60;3.90;;;;;;;38.36;26.30;98787.13;5158216;27;20501;-83
2021/07/31 06:20:51;;;;;;;8.52;3.78;;;;;;;38.83;26.35;98832.16;5123126;27;20035;-86
2021/07/31 06:23:18;;;;;;;6.35;4.10;;;;;;;38.67;25.75;98815.34;5117944;27;20503;-83
2021/07/31 06:25:44;;;;;;;8.20;4.20;;;;;;;39.31;24.95;98820.66;5120525;27;20042;-83
2021/07/31 06:28:10;;;;;;;6.63;3.83;;;;;;;39.95;24.16;98815.97;5137153;27;20047;-86
2021/07/31 06:30:36;;;;;;;8.45;3.67;;;;;;;40.18;22.93;98813.34;5123220;27;20126;-81
2021/07/31 06:33:02;;;;;;;5.40;3.72;;;;;;;40.95;22.71;98816.34;5137358;27;20080;-82
2021/07/31 06:35:28;;;;;;;5.13;3.85;;;;;;;41.68;22.11;98811.44;5123101;27;20061;-86
2021/07/31 06:37:54;;;;;;;4.75;3.85;;;;;;;41.78;21.20;98821.75;5123197;27;20481;-82
2021/07/31 06:40:20;;;;;;;6.28;3.58;;;;;;;42.37;21.07;98809.78;5138301;27;20184;-88
2021/07/31 06:42:46;;;;;;;8.07;4.30;;;;;;;42.52;20.50;98824.78;5137862;27;20066;-82
2021/07/31 06:45:12;;;;;;;4.57;3.40;;;;;;;43.20;20.46;98813.81;5106226;27;20080;-82
2021/07/31 06:47:38;;;;;;;5.78;3.50;;;;;;;43.10;18.83;98814.50;5107534;27;20035;-81
2021/07/31 06:50:09;;;;;;;4.22;3.42;;;;;;;42.64;19.20;98817.31;5145973;27;20043;-81
2021/07/31 06:52:37;;;;;;;7.25;3.90;;;;;;;42.34;19.26;98818.44;5128963;27;20066;-86
2021/07/31 06:55:03;;;;;;;6.30;3.58;;;;;;;42.13;19.42;98815.34;5137230;27;20043;-80
2021/07/31 06:57:29;;;;;;;5.85;3.58;;;;;;;42.32;18.71;98823.31;5102063;27;20030;-82
2021/07/31 06:59:55;;;;;;;7.35;3.45;;;;;;;42.62;18.53;98796.78;5134394;27;20088;-83
2021/07/31 07:02:21;;;;;;;8.65;3.45;;;;;;;43.04;18.04;98820.97;5118297;27;20422;-86
2021/07/31 07:04:47;;;;;;;6.32;3.60;;;;;;;43.58;17.46;98814.06;5136308;27;20050;-87
2021/07/31 07:07:18;;;;;;;7.65;3.50;;;;;;;42.52;17.54;98794.72;5084032;27;20035;-84
2021/07/31 07:09:43;;;;;;;6.07;3.38;;;;;;;42.03;18.01;98796.03;5118536;27;20043;-83
2021/07/31 07:12:09;;;;;;;8.95;3.50;;;;;;;41.68;17.31;98789.59;5138734;27;20544;-84
2021/07/31 07:14:36;;;;;;;5.63;3.33;;;;;;;41.37;17.84;98761.69;5136365;27;20035;-87
2021/07/31 07:17:06;;;;;;;7.10;3.60;;;;;;;40.69;18.08;98793.97;5118037;27;20519;-83
2021/07/31 07:19:32;;;;;;;5.43;3.22;;;;;;;41.10;18.14;98819.47;5125028;27;20061;-82
2021/07/31 07:21:58;;;;;;;4.75;2.80;;;;;;;41.59;17.62;98817.53;5138274;27;20091;-81
2021/07/31 07:24:24;;;;;;;6.90;3.28;;;;;;;42.17;16.90;98829.34;5137950;27;20125;-81
2021/07/31 07:26:50;;;;;;;8.55;3.20;;;;;;;42.07;16.29;98804.56;5156501;27;20076;-82
2021/07/31 07:29:16;;;;;;;4.82;3.33;;;;;;;41.36;16.79;98814.59;5134590;27;20047;-85
2021/07/31 07:31:42;;;;;;;11.32;3.10;;;;;;;41.70;16.74;98816.69;5136655;27;20064;-82
2021/07/31 07:34:07;;;;;;;4.75;3.22;;;;;;;42.16;15.97;98824.94;5134052;27;20042;-85
2021/07/31 07:36:36;;;;;;;10.27;2.95;;;;;;;42.77;15.60;98818.88;5114418;28;20070;-84
2021/07/31 07:39:02;;;;;;;6.28;3.40;;;;;;;43.04;14.95;98826.44;5117626;28;20114;-83
2021/07/31 07:41:28;;;;;;;5.55;3.10;;;;;;;43.28;14.54;98816.13;5117909;28;20047;-82
2021/07/31 07:43:54;;;;;;;9.90;3.13;;;;;;;43.69;14.39;98817.78;5116878;28;20055;-83
2021/07/31 07:46:20;;;;;;;9.40;3.25;;;;;;;44.23;14.06;98817.00;5116466;28;20043;-83
2021/07/31 07:48:47;;;;;;;4.88;3.45;;;;;;;45.00;13.79;98829.69;5132544;27;20484;-81
2021/07/31 07:51:13;;;;;;;5.88;2.88;;;;;;;45.80;13.38;98785.63;5097890;28;20074;-84
2021/07/31 07:53:41;;;;;;;7.32;3.20;;;;;;;46.49;12.55;98806.63;5099528;28;20156;-82
2021/07/31 07:56:08;;;;;;;11.05;3.00;;;;;;;45.01;12.30;98803.94;5124428;28;20032;-80
2021/07/31 07:58:34;;;;;;;20.40;3.95;;;;;;;43.55;12.68;98820.84;5120979;28;20043;-82
2021/07/31 08:01:00;;;;;;;8.55;2.70;;;;;;;42.95;13.57;98814.25;5119596;28;20054;-83
2021/07/31 08:03:26;;;;;;;7.35;2.53;;;;;;;42.92;13.71;98814.78;5115337;28;20168;-81
2021/07/31 08:05:52;;;;;;;9.23;3.10;;;;;;;42.18;13.56;98811.88;5115881;28;20066;-83
2021/07/31 08:08:17;;;;;;;8.25;3.00;;;;;;;41.83;14.46;98808.19;5132440;27;20043;-86
2021/07/31 08:10:43;;;;;;;14.07;2.80;;;;;;;41.76;13.93;98803.97;5132098;27;20039;-80
2021/07/31 08:13:09;;;;;;;6.70;2.80;;;;;;;41.17;15.25;98813.91;5099313;28;20058;-83
2021/07/31 08:15:35;;;;;;;10.13;2.70;;;;;;;41.10;14.95;98829.53;5116147;28;20039;-84
2021/07/31 08:18:01;;;;;;;6.32;3.00;;;;;;;40.99;15.22;98822.19;5115253;28;20031;-82
2021/07/31 08:20:28;;;;;;;5.18;2.92;;;;;;;41.26;14.76;98787.09;5131430;28;20082;-84
2021/07/31 08:22:54;;;;;;;5.72;3.13;;;;;;;40.16;15.14;98766.44;5136457;28;20116;-80
2021/07/31 08:25:20;;;;;;;6.32;3.05;;;;;;;39.71;16.35;98785.88;5103033;28;20046;-82
2021/07/31 08:27:46;;;;;;;4.90;3.20;;;;;;;40.05;16.23;98835.31;5101384;28;20138;-85
2021/07/31 08:30:12;;;;;;;8.90;3.15;;;;;;;38.89;16.30;98825.00;5135560;28;20071;-85
2021/07/31 08:32:38;;;;;;;4.80;3.25;;;;;;;38.21;16.82;98821.91;5133935;27;20076;-81
2021/07/31 08:35:04;;;;;;;5.85;3.50;;;;;;;38.26;17.65;98800.38;5135956;27;20043;-83
2021/07/31 08:37:35;;;;;;;6.88;4.22;;;;;;;38.51;17.46;98813.19;5113668;28;20040;-87
2021/07/31 08:40:00;;;;;;;;;;;;;;;39.74;16.71;98815.38;5115649;28;20459;-83
2021/07/31 08:42:27;;;;;;;8.02;3.25;;;;;;;39.16;17.24;98820.19;5115776;28;19920;-84
2021/07/31 08:44:53;;;;;;;5.68;3.10;;;;;;;39.45;16.74;98777.84;5115197;28;20044;-86
2021/07/31 08:47:22;;;;;;;7.90;3.30;;;;;;;39.93;16.35;98786.25;5116386;28;20046;-85
2021/07/31 08:49:48;;;;;;;11.57;3.40;;;;;;;39.20;16.70;98798.78;5121901;28;20039;-79
2021/07/31 08:52:15;;;;;;;6.43;3.17;;;;;;;39.59;16.88;98822.03;5120858;27;20039;-81
2021/07/31 08:54:41;;;;;;;6.80;3.10;;;;;;;40.32;16.76;98827.63;5100302;28;20130;-82
2021/07/31 08:57:07;;;;;;;5.88;3.47;;;;;;;40.79;16.49;98826.09;5117277;28;20043;-81
2021/07/31 08:59:34;;;;;;;11.05;2.95;;;;;;;41.52;15.23;98828.59;5104783;28;20071;-82
2021/07/31 09:02:00;;;;;;;9.00;3.60;;;;;;;41.72;15.27;98814.50;5128257;28;20044;-81
2021/07/31 09:04:27;;;;;;;5.18;2.90;;;;;;;41.38;15.30;98815.16;5131890;28;20048;-84
2021/07/31 09:06:53;;;;;;;11.35;3.00;;;;;;;41.10;15.11;98803.13;5124060;28;20092;-82
2021/07/31 09:09:27;;;;;;;5.68;3.35;;;;;;;39.66;16.34;98793.91;5121770;28;20043;-80
2021/07/31 09:12:05;;;;;;;7.30;3.40;;;;;;;39.77;16.38;98820.38;5121894;28;20478;-84
2021/07/31 09:14:33;;;;;;;9.10;3.20;;;;;;;39.64;16.27;98820.50;5118364;28;20072;-84
2021/07/31 09:16:59;;;;;;;12.80;4.40;;;;;;;39.94;16.40;98811.56;5101661;28;20063;-82
2021/07/31 09:19:27;;;;;;;6.78;2.90;;;;;;;40.12;16.15;98819.69;5129468;27;20039;-81
2021/07/31 09:22:07;;;;;;;7.38;3.10;;;;;;;39.11;16.75;98833.59;5145166;27;20039;-81
2021/07/31 09:24:35;;;;;;;17.10;4.22;;;;;;;38.90;16.72;98815.81;5124787;27;20106;-82
2021/07/31 09:27:01;;;;;;;10.27;3.20;;;;;;;38.38;17.68;98814.94;5138162;27;20121;-83
2021/07/31 09:29:37;;;;;;;8.18;3.05;;;;;;;38.73;17.52;98819.06;5139157;27;20466;-83
2021/07/31 09:32:05;;;;;;;7.38;3.75;;;;;;;38.74;17.53;98812.56;5140601;27;20045;-81
2021/07/31 09:34:44;;;;;;;5.88;2.83;;;;;;;39.41;17.56;98811.13;5137766;27;20043;-82
2021/07/31 09:37:25;;;;;;;5.97;3.53;;;;;;;40.29;16.55;98803.56;5138003;27;20043;-84
2021/07/31 09:39:56;;;;;;;8.38;3.58;;;;;;;40.69;15.59;98804.88;5137617;27;20053;-84
2021/07/31 09:42:26;;;;;;;9.63;3.63;;;;;;;39.86;16.36;98823.63;5135424;27;20046;-83
2021/07/31 09:44:52;;;;;;;7.18;3.28;;;;;;;39.78;16.48;98827.50;5135577;27;20043;-84
2021/07/31 09:47:17;;;;;;;8.73;3.35;;;;;;;40.04;16.19;98804.53;5134518;27;20512;-84
2021/07/31 09:49:43;;;;;;;5.10;3.20;;;;;;;39.84;15.93;98831.19;5117695;27;20134;-83
2021/07/31 09:52:22;;;;;;;8.23;3.20;;;;;;;39.24;16.55;98817.16;5136841;27;20053;-83
2021/07/31 09:54:50;;;;;;;7.65;3.30;;;;;;;38.96;17.00;98820.38;5135311;27;20043;-82
2021/07/31 09:57:16;;;;;;;6.13;3.10;;;;;;;38.61;17.07;98835.25;5144772;27;20462;-80
2021/07/31 09:59:46;;;;;;;7.30;3.42;;;;;;;38.48;17.31;98819.88;5139019;27;20087;-82
2021/07/31 10:02:31;;;;;;;15.13;3.40;;;;;;;38.98;17.00;98827.22;5135637;27;20043;-83
2021/07/31 10:04:57;;;;;;;7.13;3.10;;;;;;;39.00;16.97;98816.97;5118978;27;20043;-85
2021/07/31 10:07:25;;;;;;;7.03;3.20;;;;;;;39.37;16.76;98818.13;5137393;27;20062;-84
2021/07/31 10:09:52;;;;;;;7.57;3.10;;;;;;;39.30;16.92;98846.19;5143457;27;20054;-80
2021/07/31 10:12:30;;;;;;;7.10;2.92;;;;;;;39.20;16.60;98813.22;5152372;27;20031;-80
2021/07/31 10:14:56;;;;;;;8.43;3.13;;;;;;;39.09;16.67;98803.91;5111012;27;20038;-81
2021/07/31 10:17:28;;;;;;;6.78;3.05;;;;;;;38.90;16.47;98792.19;5139235;27;20042;-85
2021/07/31 10:19:55;;;;;;;6.72;3.30;;;;;;;39.02;16.74;98803.97;5136063;27;20035;-83
2021/07/31 10:22:43;;;;;;;5.63;2.65;;;;;;;39.90;16.68;98803.06;5102645;27;20571;-86
2021/07/31 10:25:11;;;;;;;8.82;3.08;;;;;;;40.03;16.45;98824.63;5098020;28;20049;-82
2021/07/31 10:27:37;;;;;;;6.38;2.90;;;;;;;39.46;15.88;98824.91;5114775;28;20041;-84
2021/07/31 10:30:22;;;;;;;5.65;2.85;;;;;;;38.52;17.01;98814.81;5114789;28;20059;-84
2021/07/31 10:32:48;;;;;;;6.57;3.03;;;;;;;38.30;17.37;98817.06;5131917;27;20094;-80
2021/07/31 10:35:37;;;;;;;6.88;2.47;;;;;;;37.77;16.98;98829.81;5137651;27;20130;-88
2021/07/31 10:38:06;;;;;;;8.38;2.97;;;;;;;36.29;17.96;98824.44;5111341;28;20047;-81
2021/07/31 10:40:37;;;;;;;11.85;2.90;;;;;;;35.04;19.11;98836.91;5097568;28;20036;-79
2021/07/31 10:43:09;;;;;;;6.70;2.88;;;;;;;34.03;20.37;98843.13;5117986;28;20044;-80
2021/07/31 10:45:35;;;;;;;6.60;3.17;;;;;;;33.27;21.05;98838.75;5120791;28;20098;-80
2021/07/31 10:48:03;;;;;;;5.38;2.65;;;;;;;32.52;22.13;98831.28;5104270;28;20074;-80
2021/07/31 10:50:29;;;;;;;6.20;3.30;;;;;;;32.17;22.37;98843.41;5118468;28;20039;-79
2021/07/31 10:53:02;;;;;;;5.90;3.10;;;;;;;31.80;23.17;98852.00;5118726;28;20122;-82
2021/07/31 10:55:37;;;;;;;9.70;2.80;;;;;;;31.27;23.64;98842.72;5114616;28;20551;-83
2021/07/31 10:58:21;;;;;;;4.68;2.53;;;;;;;30.78;24.16;98853.31;5098956;28;20043;-82
2021/07/31 11:00:49;;;;;;;8.18;2.70;;;;;;;30.42;24.37;98858.09;5097367;28;20070;-82
2021/07/31 11:03:15;;;;;;;6.88;3.00;;;;;;;30.26;24.85;98862.44;5114584;28;20040;-81
2021/07/31 11:05:51;;;;;;;6.68;3.05;;;;;;;30.12;25.23;98850.47;5115338;28;20544;-85
2021/07/31 11:08:23;;;;;;;5.15;2.78;;;;;;;30.12;25.36;98853.16;5116628;28;20087;-83
2021/07/31 11:10:49;;;;;;;5.95;2.78;;;;;;;30.11;25.81;98845.28;5113880;28;20031;-84
2021/07/31 11:13:18;;;;;;;5.32;3.70;;;;;;;30.04;26.32;98847.75;5094524;28;20051;-83
2021/07/31 11:15:56;;;;;;;6.88;3.80;;;;;;;29.86;26.51;98850.53;5116576;28;20412;-78
2021/07/31 11:18:43;;;;;;;6.68;2.80;;;;;;;29.78;26.36;98858.53;5129882;28;20137;-82
2021/07/31 11:21:20;;;;;;;7.20;3.33;;;;;;;29.69;26.50;98855.81;5111906;28;20039;-81
2021/07/31 11:23:59;;;;;;;4.82;3.10;;;;;;;29.52;26.60;98848.69;5103216;27;20038;-83
2021/07/31 11:26:39;;;;;;;4.18;3.08;;;;;;;29.28;27.29;98853.72;5132074;27;20074;-85
2021/07/31 11:29:14;;;;;;;9.85;2.95;;;;;;;29.11;27.09;98860.78;5132607;27;20424;-82
2021/07/31 11:31:44;;;;;;;10.93;2.92;;;;;;;28.98;27.28;98855.84;5114095;27;20099;-82
2021/07/31 11:34:12;;;;;;;6.82;3.10;;;;;;;28.78;27.41;98857.00;5134220;27;20072;-80
2021/07/31 11:36:53;;;;;;;7.60;2.55;;;;;;;28.84;27.49;98865.25;5131626;27;20039;-83
2021/07/31 11:39:19;;;;;;;5.60;3.03;;;;;;;28.89;27.89;98880.00;5133198;27;20038;-81